createdAt,value
2022-08-19T04:00:26.569Z,99904.19
2022-08-19T04:02:58.404Z,99901.10
2022-08-19T04:05:30.823Z,99899.92
2022-08-19T04:08:00.513Z,99900.27
2022-08-19T04:10:29.924Z,99896.41
2022-08-19T04:12:59.223Z,99901.11
2022-08-19T04:15:31.620Z,99899.32
2022-08-19T04:18:00.806Z,99892.34
2022-08-19T04:20:29.364Z,99886.53
2022-08-19T04:22:58.868Z,99881.34
2022-08-19T04:25:27.919Z,99875.20
2022-08-19T04:27:56.798Z,99871.17
2022-08-19T04:30:25.915Z,99862.39
2022-08-19T04:32:54.603Z,99858.27
2022-08-19T04:35:25.039Z,99859.80
2022-08-19T04:37:54.385Z,99863.52
2022-08-19T04:40:42.550Z,99869.81
2022-08-19T04:43:16.292Z,99876.30
2022-08-19T04:45:46.244Z,99876.58
2022-08-19T04:48:27.290Z,99873.05
2022-08-19T04:50:59.463Z,99868.29
2022-08-19T04:53:37.511Z,99871.39
2022-08-19T04:56:15.054Z,99868.99
2022-08-19T04:58:45.561Z,99861.39
2022-08-19T05:01:19.121Z,99857.75
2022-08-19T05:03:48.596Z,99856.81
2022-08-19T05:06:21.026Z,99858.85
2022-08-19T05:08:51.414Z,99868.01
2022-08-19T05:11:26.562Z,99867.05
2022-08-19T05:13:57.368Z,99869.23
2022-08-19T05:16:28.296Z,99864.63
2022-08-19T05:19:21.082Z,99865.48
2022-08-19T05:22:09.843Z,99870.30
2022-08-19T05:24:56.352Z,99865.76
2022-08-19T05:27:28.909Z,99869.36
2022-08-19T05:29:58.152Z,99867.67
2022-08-19T05:32:27.702Z,99874.01
2022-08-19T05:34:56.941Z,99876.27
2022-08-19T05:37:29.604Z,99877.81
2022-08-19T05:39:58.826Z,99883.48
2022-08-19T05:42:27.870Z,99889.70
2022-08-19T05:44:57.355Z,99892.39
2022-08-19T05:47:26.719Z,99897.05
2022-08-19T05:49:56.186Z,99899.02
2022-08-19T05:52:25.769Z,99897.65
2022-08-19T05:54:57.182Z,99900.16
2022-08-19T05:57:26.677Z,99889.54
2022-08-19T05:59:58.603Z,99883.65
2022-08-19T06:02:29.185Z,99882.49
2022-08-19T06:04:58.025Z,99882.30
2022-08-19T06:07:27.239Z,99877.67
2022-08-19T06:10:00.307Z,99879.34
2022-08-19T06:12:35.805Z,99876.20
2022-08-19T06:15:09.427Z,99875.88
2022-08-19T06:17:39.415Z,99880.09
2022-08-19T06:20:13.512Z,99874.43
2022-08-19T06:22:45.913Z,99873.52
2022-08-19T06:25:16.582Z,99873.08
2022-08-19T06:28:13.488Z,99874.33
2022-08-19T06:30:37.594Z,99871.02
2022-08-19T06:33:06.704Z,99871.69
2022-08-19T06:35:41.108Z,99873.59
2022-08-19T06:38:11.093Z,99871.16
2022-08-19T06:40:40.306Z,99874.73
2022-08-19T06:43:09.653Z,99872.37
2022-08-19T06:45:40.036Z,99871.70
2022-08-19T06:48:09.281Z,99868.08
2022-08-19T06:50:41.119Z,99862.49
2022-08-19T06:53:10.231Z,99860.17
2022-08-19T06:55:39.405Z,99858.59
2022-08-19T06:58:08.687Z,99859.80
2022-08-19T07:00:38.337Z,99861.22
2022-08-19T07:03:08.648Z,99869.91
2022-08-19T07:05:45.482Z,99871.17
2022-08-19T07:08:15.807Z,99873.33
2022-08-19T07:10:46.846Z,99871.79
2022-08-19T07:13:16.268Z,99876.08
2022-08-19T07:15:47.695Z,99882.88
2022-08-19T07:18:18.165Z,99885.00
2022-08-19T07:20:47.996Z,99885.70
2022-08-19T07:23:17.370Z,99884.95
2022-08-19T07:25:52.867Z,99881.20
2022-08-19T07:28:25.008Z,99874.70
2022-08-19T07:30:56.778Z,99864.40
2022-08-19T07:33:28.264Z,99853.69
2022-08-19T07:35:57.762Z,99854.80
2022-08-19T07:38:27.170Z,99853.42
2022-08-19T07:40:55.928Z,99853.67
2022-08-19T07:43:31.392Z,99854.67
2022-08-19T07:46:05.688Z,99857.68
2022-08-19T07:48:35.267Z,99861.82
2022-08-19T07:51:09.701Z,99867.94
2022-08-19T07:53:39.904Z,99864.67
2022-08-19T07:56:09.968Z,99865.20
2022-08-19T07:58:44.544Z,99866.77
2022-08-19T08:01:21.466Z,99861.48
2022-08-19T08:04:12.920Z,99859.79
2022-08-19T08:07:01.927Z,99856.49
2022-08-19T08:09:36.040Z,99854.81
2022-08-19T08:12:33.057Z,99854.80
2022-08-19T08:15:12.743Z,99852.25
2022-08-19T08:17:49.066Z,99859.52
2022-08-19T08:20:21.730Z,99853.91
2022-08-19T08:23:10.132Z,99861.42
2022-08-19T08:25:40.306Z,99868.42
2022-08-19T08:28:11.425Z,99866.34
2022-08-19T08:30:50.678Z,99862.80
2022-08-19T08:33:30.207Z,99865.98
2022-08-19T08:36:06.510Z,99860.30
2022-08-19T08:38:41.508Z,99868.81
2022-08-19T08:41:43.228Z,99870.69
2022-08-19T08:44:31.270Z,99876.88
2022-08-19T08:47:05.044Z,99874.66
2022-08-19T08:49:56.696Z,99875.09
2022-08-19T08:52:32.168Z,99878.73
2022-08-19T08:55:11.600Z,99870.16
2022-08-19T08:57:46.649Z,99863.08
2022-08-19T09:00:22.936Z,99865.83
2022-08-19T09:02:52.565Z,99868.96
2022-08-19T09:05:27.388Z,99868.16
2022-08-19T09:08:20.319Z,99869.09
2022-08-19T09:10:55.253Z,99866.90
2022-08-19T09:13:25.199Z,99867.34
2022-08-19T09:16:13.340Z,99872.15
2022-08-19T09:18:56.157Z,99872.28
2022-08-19T09:21:33.057Z,99872.48
2022-08-19T09:24:05.894Z,99867.86
2022-08-19T09:26:48.671Z,99869.23
2022-08-19T09:29:24.878Z,99870.04
2022-08-19T09:31:55.230Z,99869.57
2022-08-19T09:34:24.585Z,99870.81
2022-08-19T09:36:54.980Z,99868.87
2022-08-19T09:39:24.233Z,99868.53
2022-08-19T09:41:54.547Z,99857.27
2022-08-19T09:44:27.558Z,99856.73
2022-08-19T09:46:57.792Z,99864.34
2022-08-19T09:49:27.216Z,99855.14
2022-08-19T09:51:58.280Z,99866.08
2022-08-19T09:54:27.998Z,99862.48
2022-08-19T09:57:04.635Z,99857.03
2022-08-19T09:59:37.913Z,99852.92
2022-08-19T10:02:10.827Z,99855.65
2022-08-19T10:04:59.797Z,99849.38
2022-08-19T10:07:36.399Z,99838.58
2022-08-19T10:10:08.163Z,99837.52
2022-08-19T10:12:38.176Z,99840.84
2022-08-19T10:15:08.467Z,99835.31
2022-08-19T10:17:37.943Z,99835.16
2022-08-19T10:20:08.096Z,99836.23
2022-08-19T10:22:38.957Z,99830.55
2022-08-19T10:25:08.876Z,99819.88
2022-08-19T10:27:39.263Z,99818.77
2022-08-19T10:30:11.241Z,99813.81
2022-08-19T10:32:46.261Z,99806.70
2022-08-19T10:35:21.761Z,99816.31
2022-08-19T10:37:57.271Z,99817.44
2022-08-19T10:40:30.379Z,99808.64
2022-08-19T10:42:59.619Z,99818.03
2022-08-19T10:45:28.767Z,99812.29
2022-08-19T10:47:59.017Z,99798.82
2022-08-19T10:50:48.049Z,99798.86
2022-08-19T10:53:17.831Z,99808.81
2022-08-19T10:56:06.162Z,99803.95
2022-08-19T10:58:35.952Z,99806.81
2022-08-19T11:01:05.351Z,99798.13
2022-08-19T11:03:34.758Z,99798.72
2022-08-19T11:06:07.114Z,99797.65
2022-08-19T11:08:39.285Z,99791.25
2022-08-19T11:11:08.803Z,99790.36
2022-08-19T11:13:41.092Z,99788.66
2022-08-19T11:16:14.866Z,99786.00
2022-08-19T11:18:48.099Z,99783.97
2022-08-19T11:21:24.746Z,99782.42
2022-08-19T11:23:57.748Z,99785.29
2022-08-19T11:26:28.434Z,99782.14
2022-08-19T11:29:00.370Z,99776.13
2022-08-19T11:31:36.654Z,99780.46
2022-08-19T11:34:09.446Z,99776.36
2022-08-19T11:36:44.912Z,99775.47
2022-08-19T11:39:19.438Z,99773.61
2022-08-19T11:41:50.476Z,99767.16
2022-08-19T11:44:24.997Z,99773.95
2022-08-19T11:46:58.582Z,99765.79
2022-08-19T11:49:48.720Z,99771.23
2022-08-19T11:52:20.068Z,99772.48
2022-08-19T11:54:50.702Z,99770.73
2022-08-19T11:57:21.509Z,99766.67
2022-08-19T11:59:58.141Z,99756.91
2022-08-19T12:02:29.783Z,99754.98
2022-08-19T12:05:00.046Z,99763.77
2022-08-19T12:07:34.944Z,99759.86
2022-08-19T12:10:06.254Z,99753.73
2022-08-19T12:12:36.887Z,99750.73
2022-08-19T12:15:06.877Z,99746.52
2022-08-19T12:17:36.684Z,99748.95
2022-08-19T12:20:10.691Z,99746.48
2022-08-19T12:22:41.657Z,99743.36
2022-08-19T12:25:13.655Z,99738.98
2022-08-19T12:27:56.864Z,99745.15
2022-08-19T12:30:28.384Z,99745.48
2022-08-19T12:33:00.476Z,99738.10
2022-08-19T12:35:32.358Z,99741.91
2022-08-19T12:38:24.103Z,99737.27
2022-08-19T12:41:00.298Z,99732.48
2022-08-19T12:43:32.169Z,99732.16
2022-08-19T12:46:06.019Z,99727.44
2022-08-19T12:48:39.921Z,99725.29
2022-08-19T12:51:13.888Z,99724.70
2022-08-19T12:53:45.140Z,99716.93
2022-08-19T12:56:18.182Z,99716.23
2022-08-19T12:58:52.967Z,99721.21
2022-08-19T13:01:24.208Z,99717.23
2022-08-19T13:03:54.669Z,99722.21
2022-08-19T13:06:23.776Z,99718.80
2022-08-19T13:08:57.718Z,99715.02
2022-08-19T13:11:33.987Z,99714.58
2022-08-19T13:14:05.439Z,99720.02
2022-08-19T13:16:34.653Z,99712.48
2022-08-19T13:19:05.971Z,99722.80
2022-08-19T13:21:35.275Z,99721.67
2022-08-19T13:24:05.573Z,99722.73
2022-08-19T13:26:34.797Z,99721.02
2022-08-19T13:29:22.506Z,99723.16
2022-08-19T13:32:10.798Z,99716.66
2022-08-19T13:34:48.309Z,99711.30
2022-08-19T13:37:17.383Z,99717.25
2022-08-19T13:39:48.773Z,99721.88
2022-08-19T13:42:20.087Z,99717.36
2022-08-19T13:44:49.805Z,99719.73
2022-08-19T13:47:18.892Z,99725.09
2022-08-19T13:49:49.298Z,99723.39
2022-08-19T13:52:18.554Z,99718.36
2022-08-19T13:54:47.728Z,99719.50
2022-08-19T13:57:16.304Z,99719.01
2022-08-19T13:59:44.809Z,99717.15
2022-08-19T14:02:13.532Z,99719.95
2022-08-19T14:04:43.111Z,99717.13
2022-08-19T14:07:11.762Z,99731.16
2022-08-19T14:09:40.465Z,99723.39
2022-08-19T14:12:09.656Z,99720.31
2022-08-19T14:14:39.877Z,99722.84
2022-08-19T14:17:09.486Z,99716.17
2022-08-19T14:19:41.156Z,99722.88
2022-08-19T14:22:21.969Z,99726.11
2022-08-19T14:24:51.623Z,99724.50
2022-08-19T14:27:20.120Z,99721.58
2022-08-19T14:29:49.270Z,99720.86
2022-08-19T14:32:18.193Z,99717.97
2022-08-19T14:34:46.919Z,99723.09
2022-08-19T14:37:16.389Z,99714.77
2022-08-19T14:39:46.302Z,99709.44
2022-08-19T14:42:16.055Z,99716.80
2022-08-19T14:44:45.106Z,99717.60
2022-08-19T14:47:13.951Z,99720.61
2022-08-19T14:49:48.025Z,99718.64
2022-08-19T14:52:22.247Z,99719.92
2022-08-19T14:54:52.651Z,99719.11
2022-08-19T14:57:22.775Z,99710.94
2022-08-19T14:59:51.486Z,99713.55
2022-08-19T15:02:35.057Z,99710.98
2022-08-19T15:05:04.705Z,99710.53
2022-08-19T15:07:34.061Z,99706.38
2022-08-19T15:10:02.492Z,99700.63
2022-08-19T15:12:31.684Z,99705.11
2022-08-19T15:15:00.288Z,99705.33
2022-08-19T15:17:43.721Z,99704.56
2022-08-19T15:20:18.590Z,99706.38
2022-08-19T15:22:47.494Z,99707.64
2022-08-19T15:25:20.028Z,99708.21
2022-08-19T15:27:50.159Z,99705.95
2022-08-19T15:30:24.247Z,99710.83
2022-08-19T15:32:56.761Z,99707.91
2022-08-19T15:35:26.205Z,99701.71
2022-08-19T15:37:57.066Z,99701.39
2022-08-19T15:40:27.863Z,99702.94
2022-08-19T15:42:58.945Z,99707.43
2022-08-19T15:45:32.987Z,99703.31
2022-08-19T15:48:04.119Z,99703.89
2022-08-19T15:50:33.444Z,99703.40
2022-08-19T15:53:06.801Z,99702.83
2022-08-19T15:55:42.084Z,99704.56
2022-08-19T15:58:32.255Z,99705.05
2022-08-19T16:01:24.089Z,99704.30
2022-08-19T16:04:15.717Z,99701.70
2022-08-19T16:06:58.200Z,99705.08
2022-08-19T16:09:30.573Z,99704.45
2022-08-19T16:12:04.337Z,99704.02
2022-08-19T16:14:35.647Z,99704.38
2022-08-19T16:17:04.618Z,99703.55
2022-08-19T16:19:33.529Z,99706.79
2022-08-19T16:22:02.181Z,99702.09
2022-08-19T16:24:30.772Z,99697.91
2022-08-19T16:27:01.832Z,99694.83
2022-08-19T16:29:34.482Z,99690.90
2022-08-19T16:32:11.953Z,99694.58
2022-08-19T16:34:42.204Z,99693.92
2022-08-19T16:37:10.949Z,99697.36
2022-08-19T16:39:40.496Z,99698.64
2022-08-19T16:42:14.454Z,99697.52
2022-08-19T16:44:45.968Z,99699.63
2022-08-19T16:47:16.993Z,99707.55
2022-08-19T16:49:53.358Z,99705.50
2022-08-19T16:52:27.668Z,99708.40
2022-08-19T16:54:56.472Z,99704.16
2022-08-19T16:57:25.813Z,99706.29
2022-08-19T16:59:55.018Z,99706.67
2022-08-19T17:02:29.489Z,99702.75
2022-08-19T17:05:00.775Z,99706.81
2022-08-19T17:07:33.060Z,99710.52
2022-08-19T17:10:05.835Z,99709.59
2022-08-19T17:12:35.550Z,99711.80
2022-08-19T17:15:09.048Z,99710.48
2022-08-19T17:17:38.210Z,99712.27
2022-08-19T17:20:09.046Z,99715.61
2022-08-19T17:22:38.172Z,99717.55
2022-08-19T17:25:07.561Z,99716.02
2022-08-19T17:27:36.228Z,99714.03
2022-08-19T17:30:06.888Z,99718.03
2022-08-19T17:32:35.862Z,99717.79
2022-08-19T17:35:04.893Z,99723.23
2022-08-19T17:37:34.472Z,99726.33
2022-08-19T17:40:07.498Z,99731.66
2022-08-19T17:42:37.068Z,99733.84
2022-08-19T17:45:11.716Z,99736.56
2022-08-19T17:47:41.519Z,99735.16
2022-08-19T17:50:13.166Z,99740.94
2022-08-19T17:52:43.208Z,99741.32
2022-08-19T17:55:14.767Z,99747.98
2022-08-19T17:57:46.870Z,99751.03
2022-08-19T18:00:17.057Z,99753.15
2022-08-19T18:03:00.676Z,99756.96
2022-08-19T18:05:37.642Z,99759.20
2022-08-19T18:08:09.793Z,99760.21
2022-08-19T18:10:38.678Z,99762.34
2022-08-19T18:13:17.083Z,99763.26
2022-08-19T18:15:48.251Z,99766.79
2022-08-19T18:18:17.438Z,99766.53
2022-08-19T18:20:46.960Z,99771.08
2022-08-19T18:23:44.650Z,99771.21
2022-08-19T18:26:04.839Z,99768.70
2022-08-19T18:28:33.962Z,99768.30
2022-08-19T18:31:04.610Z,99765.52
2022-08-19T18:33:34.765Z,99767.91
2022-08-19T18:36:13.155Z,99766.92
2022-08-19T18:39:06.433Z,99769.80
2022-08-19T18:41:59.043Z,99767.36
2022-08-19T18:44:46.597Z,99765.58
2022-08-19T18:47:34.118Z,99768.08
2022-08-19T18:50:08.846Z,99768.95
2022-08-19T18:52:40.544Z,99767.58
2022-08-19T18:55:09.699Z,99766.06
2022-08-19T18:57:38.330Z,99770.65
2022-08-19T19:00:08.783Z,99767.63
2022-08-19T19:02:39.211Z,99759.65
2022-08-19T19:05:08.220Z,99764.48
2022-08-19T19:07:36.651Z,99761.87
2022-08-19T19:10:06.810Z,99759.23
2022-08-19T19:12:47.302Z,99754.05
2022-08-19T19:15:16.245Z,99761.75
2022-08-19T19:17:45.413Z,99765.45
2022-08-19T19:20:14.322Z,99766.19
2022-08-19T19:22:42.977Z,99768.52
2022-08-19T19:25:12.659Z,99764.77
2022-08-19T19:27:44.080Z,99763.22
2022-08-19T19:30:14.243Z,99763.27
2022-08-19T19:32:42.901Z,99766.80
2022-08-19T19:35:11.623Z,99767.71
2022-08-19T19:37:40.707Z,99767.38
2022-08-19T19:40:10.677Z,99766.95
2022-08-19T19:42:39.398Z,99766.20
2022-08-19T19:45:09.302Z,99766.52
2022-08-19T19:47:38.624Z,99767.23
2022-08-19T19:50:14.878Z,99771.13
2022-08-19T19:52:47.167Z,99771.02
2022-08-19T19:55:21.373Z,99767.23
2022-08-19T19:57:50.682Z,99766.06
2022-08-19T20:00:21.069Z,99760.27
2022-08-19T20:02:50.915Z,99756.40
2022-08-19T20:05:21.731Z,99753.88
2022-08-19T20:08:12.357Z,99754.79
2022-08-19T20:10:43.820Z,99748.57
2022-08-19T20:13:16.088Z,99750.34
2022-08-19T20:15:45.310Z,99752.08
2022-08-19T20:18:15.284Z,99754.50
2022-08-19T20:20:47.100Z,99762.27
2022-08-19T20:23:18.213Z,99765.84
2022-08-19T20:25:47.201Z,99766.40
2022-08-19T20:28:16.650Z,99774.35
2022-08-19T20:30:48.008Z,99774.77
2022-08-19T20:33:17.917Z,99784.54
2022-08-19T20:35:46.994Z,99788.55
2022-08-19T20:38:16.611Z,99797.09
2022-08-19T20:40:45.867Z,99801.01
2022-08-19T20:43:15.922Z,99801.63
2022-08-19T20:45:45.092Z,99805.23
2022-08-19T20:48:14.034Z,99806.34
2022-08-19T20:50:43.297Z,99811.10
2022-08-19T20:53:15.521Z,99806.23
2022-08-19T20:55:47.244Z,99802.42
2022-08-19T20:58:18.809Z,99800.44
2022-08-19T21:00:48.630Z,99799.56
2022-08-19T21:03:21.231Z,99798.27
2022-08-19T21:05:51.557Z,99798.77
2022-08-19T21:08:20.951Z,99805.56
2022-08-19T21:10:52.049Z,99804.80
2022-08-19T21:13:22.157Z,99800.20
2022-08-19T21:15:51.674Z,99800.31
2022-08-19T21:18:22.954Z,99805.09
2022-08-19T21:20:53.799Z,99818.64
2022-08-19T21:23:26.156Z,99832.55
2022-08-19T21:25:56.357Z,99846.31
2022-08-19T21:28:29.864Z,99840.27
2022-08-19T21:31:05.748Z,99850.41
2022-08-19T21:33:42.609Z,99844.30
2022-08-19T21:36:15.878Z,99843.38
2022-08-19T21:38:44.368Z,99840.23
2022-08-19T21:41:13.228Z,99844.89
2022-08-19T21:43:42.388Z,99841.98
2022-08-19T21:46:11.532Z,99839.41
2022-08-19T21:48:40.229Z,99840.88
2022-08-19T21:51:08.934Z,99846.45
2022-08-19T21:53:38.250Z,99842.56
2022-08-19T21:56:07.800Z,99841.96
2022-08-19T21:58:39.416Z,99838.38
2022-08-19T22:01:08.794Z,99834.52
2022-08-19T22:03:40.223Z,99837.11
2022-08-19T22:06:09.828Z,99840.93
2022-08-19T22:08:41.251Z,99838.25
2022-08-19T22:11:12.021Z,99831.26
2022-08-19T22:13:42.147Z,99824.80
2022-08-19T22:16:10.929Z,99826.16
2022-08-19T22:18:40.713Z,99822.52
2022-08-19T22:21:11.950Z,99839.42
2022-08-19T22:23:44.569Z,99851.17
2022-08-19T22:26:18.171Z,99872.65
2022-08-19T22:28:47.745Z,99882.55
2022-08-19T22:31:18.967Z,99885.70
2022-08-19T22:33:49.459Z,99881.62
2022-08-19T22:36:19.276Z,99879.94
